Hauptseite
METAR-TAF:

METAR-TAF

Flughäfen :

Tripolis, Libyen

Mitiga International Airport

Breite: 32-54N, Länge: 13-17E, Höhe: 11 m

Beobachtung

Neuester Wetterbericht von vor 51 Minuten, um 13:50 UTC
Wind 13 kt aus Ost/Nordost
Temperatur 32°C
Luftfeuchtigkeit 52%
Luftdruck 1015 hPa
Sichtweite: 8000 m
Himmel klar

METAR: HLLM 221350Z 07013KT 8000 SKC 32/21 Q1015

Zeit: 16:41 (14:41 UTC)

Prognose

Neuester Wetterbericht von vor 9 Stunden und 41 Minuten, um 05:00 UTC
Gültige Prognose vom 22 um 06 UTC bis 23 um 06 UTC
Wind 5 kt aus Ost
Sichtweite: 8000 m
Übergehend zu
vom 22 um 10 UTC bis 22 um 12 UTC
Wind 15 kt aus Ost
Übergehend zu
vom 23 um 00 UTC bis 23 um 02 UTC
Wind 2 kt aus unterschiedlichen Richtungen

TAF: HLLM 220500Z 2206/2306 09005KT 8000 NSC BECMG 2210/2212 09015KT BECMG 2300/2302 VRB02KT

Wetterbeobachtungen und Prognosen von mehr als 4000 Flughäfen (METAR und TAF Bericht).

Die verfügbaren Stationen werden durch gelbe und rote Markierungen auf der Karte dargestellt.

Führen Sie die Maus auf sie, um den Namen der Station zu sehen.

Darauf klicken, um die Beobachtung von Wetterbeobachtungen und Prognosen zu sehen.

Um die Karte zu ändern : klicken Sie auf den grünen Tasten mit einem schwarzen Kreuz Zum Vergrößern, auf den grünen Button mit einem Gedankenstrich zu verkleinern, oder auf die grünen Pfeile für benachbarte Karten.


METAR-TAF: